createdAt,value
2022-09-05T00:03:03.602Z,23.40
2022-09-05T00:06:02.623Z,23.40
2022-09-05T00:09:00.612Z,23.30
2022-09-05T00:11:44.061Z,23.30
2022-09-05T00:14:34.217Z,23.30
2022-09-05T00:17:45.857Z,23.20
2022-09-05T00:24:26.076Z,23.20
2022-09-05T00:24:35.630Z,23.20
2022-09-05T00:27:17.583Z,23.20
2022-09-05T00:31:06.625Z,23.10
2022-09-05T00:33:40.391Z,23.10
2022-09-05T00:36:34.299Z,23.10
2022-09-05T00:39:06.341Z,23.00
2022-09-05T00:41:34.459Z,23.00
2022-09-05T00:44:02.982Z,22.90
2022-09-05T00:46:34.816Z,22.90
2022-09-05T00:49:11.282Z,22.90
2022-09-05T00:54:26.817Z,22.80
2022-09-05T00:57:30.594Z,22.80
2022-09-05T01:00:07.431Z,22.80
2022-09-05T01:03:12.186Z,22.80
2022-09-05T01:05:50.857Z,22.80
2022-09-05T01:09:07.564Z,22.70
2022-09-05T01:12:00.924Z,22.70
2022-09-05T01:14:46.755Z,22.70
2022-09-05T01:17:37.609Z,22.70
2022-09-05T01:20:31.381Z,22.60
2022-09-05T01:23:22.934Z,22.60
2022-09-05T01:26:31.972Z,22.60
2022-09-05T01:29:15.254Z,22.60
2022-09-05T01:34:29.634Z,22.60
2022-09-05T01:37:32.765Z,22.60
2022-09-05T01:40:16.054Z,22.50
2022-09-05T01:42:51.070Z,22.50
2022-09-05T01:45:34.975Z,22.50
2022-09-05T01:48:41.017Z,22.50
2022-09-05T01:51:28.877Z,22.40
2022-09-05T01:54:24.100Z,22.50
2022-09-05T01:57:05.301Z,22.40
2022-09-05T01:59:48.156Z,22.50
2022-09-05T02:02:20.745Z,22.40
2022-09-05T02:05:05.517Z,22.40
2022-09-05T02:07:58.946Z,22.40
2022-09-05T02:10:25.845Z,22.40
2022-09-05T02:13:12.511Z,22.40
2022-09-05T02:15:59.832Z,22.40
2022-09-05T02:18:47.494Z,22.30
2022-09-05T02:21:56.326Z,22.30
2022-09-05T02:24:35.710Z,22.30
2022-09-05T02:28:04.650Z,22.30
2022-09-05T02:30:26.444Z,22.30
2022-09-05T02:33:32.218Z,22.20
2022-09-05T02:36:25.456Z,22.20
2022-09-05T02:41:01.179Z,22.20
2022-09-05T02:45:14.210Z,22.20
2022-09-05T02:45:19.572Z,22.20
2022-09-05T02:48:16.252Z,22.20
2022-09-05T02:56:18.533Z,22.00
2022-09-05T02:57:42.127Z,22.20
2022-09-05T02:58:05.702Z,22.20
2022-09-05T03:00:23.796Z,22.10
2022-09-05T03:03:39.257Z,22.10
2022-09-05T03:06:35.463Z,22.10
2022-09-05T03:12:29.522Z,22.10
2022-09-05T03:15:33.040Z,22.10
2022-09-05T03:18:28.561Z,22.10
2022-09-05T03:21:25.883Z,22.10
2022-09-05T03:24:25.936Z,22.10
2022-09-05T03:27:10.770Z,22.10
2022-09-05T03:29:48.350Z,22.10
2022-09-05T03:35:10.473Z,22.00
2022-09-05T03:37:54.281Z,22.00
2022-09-05T03:40:36.428Z,22.00
2022-09-05T03:43:25.980Z,22.00
2022-09-05T03:46:16.057Z,22.00
2022-09-05T03:51:07.930Z,22.00
2022-09-05T03:57:27.375Z,21.90
2022-09-05T03:57:28.307Z,22.00
2022-09-05T03:58:57.437Z,21.90
2022-09-05T04:02:59.964Z,21.90
2022-09-05T04:08:17.421Z,21.90
2022-09-05T04:08:26.111Z,21.90
2022-09-05T04:10:45.769Z,21.90
2022-09-05T04:13:28.765Z,21.80
2022-09-05T04:16:09.926Z,21.80
2022-09-05T04:18:45.712Z,21.80
2022-09-05T04:24:01.483Z,21.80
2022-09-05T04:27:04.194Z,21.70
2022-09-05T04:30:01.931Z,21.70
2022-09-05T04:35:18.545Z,21.70
2022-09-05T04:37:56.468Z,21.60
2022-09-05T04:40:47.153Z,21.60
2022-09-05T04:43:28.013Z,21.60
2022-09-05T04:46:02.083Z,21.60
2022-09-05T04:48:38.040Z,21.50
2022-09-05T04:51:11.691Z,21.60
2022-09-05T04:54:21.104Z,21.50
2022-09-05T04:56:53.004Z,21.50
2022-09-05T05:02:12.757Z,21.50
2022-09-05T05:06:09.237Z,21.50
2022-09-05T05:06:15.484Z,21.50
2022-09-05T05:09:04.211Z,21.50
2022-09-05T05:17:56.419Z,21.40
2022-09-05T05:18:09.261Z,21.50
2022-09-05T05:18:09.262Z,21.40
2022-09-05T05:20:49.255Z,21.40
2022-09-05T05:23:18.802Z,21.40
2022-09-05T05:25:54.976Z,21.40
2022-09-05T05:28:46.750Z,21.40
2022-09-05T05:31:30.723Z,21.40
2022-09-05T05:34:24.455Z,21.40
2022-09-05T05:37:15.958Z,21.40
2022-09-05T05:39:48.493Z,21.40
2022-09-05T05:42:24.235Z,21.40
2022-09-05T05:44:57.438Z,21.40
2022-09-05T05:47:31.715Z,21.40
2022-09-05T05:50:21.589Z,21.40
2022-09-05T05:53:33.519Z,21.40
2022-09-05T05:56:32.869Z,21.40
2022-09-05T05:59:22.626Z,21.50
2022-09-05T06:02:16.664Z,21.40
2022-09-05T06:05:14.481Z,21.50
2022-09-05T06:09:32.396Z,21.50
2022-09-05T06:14:57.753Z,21.50
2022-09-05T06:15:08.722Z,21.50
2022-09-05T06:17:53.675Z,21.60
2022-09-05T06:22:10.456Z,21.60
2022-09-05T06:23:59.138Z,21.60
2022-09-05T06:26:45.811Z,21.60
2022-09-05T06:29:21.313Z,21.50
2022-09-05T06:32:08.610Z,21.70
2022-09-05T06:34:47.278Z,21.70
2022-09-05T06:37:33.138Z,21.70
2022-09-05T06:40:31.567Z,21.80
2022-09-05T06:43:10.691Z,21.80
2022-09-05T06:45:49.297Z,21.80
2022-09-05T06:49:32.414Z,21.90
2022-09-05T06:52:16.598Z,22.20
2022-09-05T06:55:04.774Z,22.00
2022-09-05T07:05:39.826Z,22.10
2022-09-05T07:13:57.544Z,22.20
2022-09-05T07:16:37.875Z,22.20
2022-09-05T07:19:25.886Z,22.30
2022-09-05T07:22:46.721Z,22.30
2022-09-05T07:25:10.671Z,22.30
2022-09-05T07:28:27.008Z,22.40
2022-09-05T07:30:52.041Z,22.40
2022-09-05T07:33:27.539Z,22.50
2022-09-05T07:36:04.053Z,22.50
2022-09-05T07:38:45.538Z,22.60
2022-09-05T07:41:26.864Z,22.70
2022-09-05T07:44:03.132Z,22.70
2022-09-05T07:46:38.487Z,22.80
2022-09-05T07:49:09.396Z,22.90
2022-09-05T07:56:53.093Z,22.90
2022-09-05T07:57:10.465Z,23.00
2022-09-05T07:57:32.314Z,23.10
2022-09-05T08:00:25.546Z,23.20
2022-09-05T08:05:34.344Z,23.30
2022-09-05T08:08:05.045Z,23.20
2022-09-05T08:11:23.217Z,23.40
2022-09-05T08:13:47.238Z,23.40
2022-09-05T08:16:19.417Z,23.50
2022-09-05T08:19:04.479Z,23.50
2022-09-05T08:21:43.831Z,23.60
2022-09-05T08:24:27.057Z,23.60
2022-09-05T08:27:16.771Z,23.60
2022-09-05T08:32:21.144Z,23.70
2022-09-05T08:34:54.486Z,23.70
2022-09-05T08:37:25.800Z,23.70
2022-09-05T08:40:10.233Z,23.80
2022-09-05T08:46:37.993Z,23.80
2022-09-05T08:46:39.704Z,23.90
2022-09-05T08:49:53.998Z,23.90
2022-09-05T08:52:48.965Z,23.90
2022-09-05T08:55:36.534Z,24.00
2022-09-05T08:58:18.459Z,24.00
2022-09-05T09:01:17.201Z,24.10
2022-09-05T09:04:05.958Z,24.10
2022-09-05T09:07:09.474Z,24.20
2022-09-05T09:09:58.059Z,24.20
2022-09-05T09:17:38.028Z,24.30
2022-09-05T09:20:10.681Z,24.40
2022-09-05T09:25:16.009Z,23.10
2022-09-05T09:28:46.857Z,24.60
2022-09-05T09:31:12.477Z,24.70
2022-09-05T09:33:45.754Z,24.70
2022-09-05T09:36:47.768Z,24.80
2022-09-05T09:39:42.375Z,24.90
2022-09-05T09:42:32.444Z,25.00
2022-09-05T09:45:22.581Z,25.10
2022-09-05T09:48:11.163Z,25.20
2022-09-05T09:50:59.289Z,25.30
2022-09-05T09:53:49.753Z,25.40
2022-09-05T09:56:19.579Z,25.40
2022-09-05T09:58:49.420Z,25.60
2022-09-05T10:01:40.484Z,25.70
2022-09-05T10:10:37.945Z,25.80
2022-09-05T10:11:09.344Z,25.90
2022-09-05T10:14:29.086Z,26.00
2022-09-05T10:17:38.274Z,26.10
2022-09-05T10:23:21.499Z,26.20
2022-09-05T10:26:03.313Z,26.10
2022-09-05T10:37:52.032Z,26.60
2022-09-05T10:45:38.160Z,26.80
2022-09-05T10:51:00.699Z,26.90
2022-09-05T11:17:35.872Z,27.40
2022-09-05T11:30:47.253Z,27.60
2022-09-05T11:44:43.741Z,28.00
2022-09-05T11:53:12.588Z,28.30
2022-09-05T11:56:16.575Z,28.30
2022-09-05T12:05:47.597Z,28.60
2022-09-05T12:16:27.046Z,28.90
2022-09-05T12:19:18.774Z,28.90
2022-09-05T12:30:15.129Z,29.20
2022-09-05T12:36:02.804Z,29.30
2022-09-05T12:44:44.919Z,29.60
2022-09-05T13:22:22.769Z,31.90
2022-09-05T13:25:05.167Z,32.10
2022-09-05T13:27:39.592Z,32.40
2022-09-05T13:38:14.174Z,33.30
2022-09-05T13:44:26.573Z,34.10
2022-09-05T13:57:51.165Z,35.20
2022-09-05T14:00:29.005Z,35.40
2022-09-05T14:16:34.064Z,36.20
2022-09-05T14:30:02.580Z,36.10
2022-09-05T15:02:42.334Z,35.60
2022-09-05T15:41:02.316Z,38.50
2022-09-05T16:23:55.482Z,40.20
2022-09-05T16:32:02.359Z,40.20
2022-09-05T16:42:16.184Z,39.80
2022-09-05T16:52:17.330Z,39.30
2022-09-05T17:07:49.473Z,38.00
2022-09-05T17:10:19.906Z,37.80
2022-09-05T17:12:54.734Z,37.60
2022-09-05T17:15:26.116Z,37.40
2022-09-05T17:18:21.610Z,37.20
2022-09-05T17:20:48.703Z,37.00
2022-09-05T17:29:17.405Z,36.80
2022-09-05T17:29:31.919Z,36.60
2022-09-05T17:32:47.691Z,36.20
2022-09-05T17:35:17.350Z,36.00
2022-09-05T17:40:32.705Z,35.70
2022-09-05T17:45:29.814Z,35.40
2022-09-05T17:47:59.886Z,35.20
2022-09-05T17:58:49.388Z,34.60
2022-09-05T18:01:21.224Z,34.40
2022-09-05T18:06:52.841Z,34.00
2022-09-05T18:09:47.924Z,33.90
2022-09-05T18:13:12.415Z,33.70
2022-09-05T18:15:27.407Z,33.60
2022-09-05T18:20:40.757Z,33.20
2022-09-05T18:23:18.289Z,33.10
2022-09-05T18:26:20.835Z,32.90
2022-09-05T18:28:50.613Z,32.80
2022-09-05T18:31:40.845Z,29.20
2022-09-05T18:34:21.136Z,32.40
2022-09-05T18:36:50.612Z,32.30
2022-09-05T18:39:24.498Z,32.20
2022-09-05T18:42:33.388Z,32.00
2022-09-05T18:45:14.825Z,31.90
2022-09-05T18:47:51.061Z,31.70
2022-09-05T18:50:28.776Z,31.60
2022-09-05T18:53:09.671Z,31.50
2022-09-05T18:56:10.248Z,31.30
2022-09-05T18:58:34.574Z,31.20
2022-09-05T19:01:28.433Z,31.10
2022-09-05T19:04:08.194Z,30.90
2022-09-05T19:06:45.235Z,30.80
2022-09-05T19:09:26.736Z,30.70
2022-09-05T19:14:55.033Z,30.40
2022-09-05T19:23:10.625Z,30.10
2022-09-05T19:37:29.752Z,29.60
2022-09-05T19:47:35.726Z,29.30
2022-09-05T19:47:38.548Z,29.40
2022-09-05T19:48:32.851Z,29.20
2022-09-05T19:51:16.283Z,29.20
2022-09-05T19:53:54.061Z,29.00
2022-09-05T19:56:40.938Z,29.00
2022-09-05T19:59:24.206Z,29.00
2022-09-05T20:01:53.062Z,28.80
2022-09-05T20:04:21.643Z,28.80
2022-09-05T20:06:50.237Z,28.70
2022-09-05T20:09:25.170Z,28.70
2022-09-05T20:11:54.891Z,28.60
2022-09-05T20:14:30.298Z,28.50
2022-09-05T20:17:18.229Z,28.50
2022-09-05T20:22:48.955Z,28.30
2022-09-05T20:25:19.855Z,28.30
2022-09-05T20:30:34.786Z,28.10
2022-09-05T20:33:09.653Z,28.10
2022-09-05T20:42:24.841Z,28.00
2022-09-05T20:43:17.606Z,27.90
2022-09-05T20:43:18.016Z,28.00
2022-09-05T20:49:44.874Z,27.80
2022-09-05T20:54:09.692Z,27.70
2022-09-05T20:54:15.842Z,27.70
2022-09-05T20:58:15.436Z,27.60
2022-09-05T21:01:17.459Z,27.50
2022-09-05T21:03:40.948Z,27.40
2022-09-05T21:06:33.282Z,27.40
2022-09-05T21:09:25.457Z,27.30
2022-09-05T21:11:58.877Z,27.20
2022-09-05T21:14:28.916Z,27.20
2022-09-05T21:17:15.311Z,27.20
2022-09-05T21:27:24.493Z,27.00
2022-09-05T21:29:58.872Z,27.00
2022-09-05T21:32:36.130Z,26.90
2022-09-05T21:35:15.427Z,26.80
2022-09-05T21:37:53.727Z,26.80
2022-09-05T21:47:48.487Z,26.70
2022-09-05T21:48:23.867Z,26.60
2022-09-05T21:50:56.769Z,26.70
2022-09-05T21:59:25.235Z,26.60
2022-09-05T21:59:36.801Z,26.50
2022-09-05T22:04:40.961Z,26.50
2022-09-05T22:07:14.331Z,26.50
2022-09-05T22:12:26.953Z,26.40
2022-09-05T22:17:25.837Z,26.40
2022-09-05T22:19:53.105Z,26.30
2022-09-05T22:22:20.822Z,26.30
2022-09-05T22:24:55.670Z,26.30
2022-09-05T22:27:25.723Z,26.30
2022-09-05T22:32:33.807Z,26.20
2022-09-05T22:35:27.624Z,26.20
2022-09-05T22:38:10.556Z,26.20
2022-09-05T22:40:39.966Z,26.20
2022-09-05T22:43:08.828Z,26.10
2022-09-05T22:45:37.909Z,26.10
2022-09-05T22:48:10.843Z,26.10
2022-09-05T22:50:38.309Z,26.10
2022-09-05T22:55:39.195Z,26.00
2022-09-05T22:58:07.999Z,26.00
2022-09-05T23:00:34.889Z,25.90
2022-09-05T23:03:03.866Z,25.90
2022-09-05T23:05:32.233Z,25.90
2022-09-05T23:08:00.629Z,25.90
2022-09-05T23:10:28.902Z,25.80
2022-09-05T23:12:56.243Z,25.80
2022-09-05T23:15:23.837Z,25.80
2022-09-05T23:17:55.254Z,25.70
2022-09-05T23:20:23.201Z,25.70
2022-09-05T23:22:50.074Z,25.70
2022-09-05T23:30:12.771Z,25.60
2022-09-05T23:32:47.177Z,25.60
2022-09-05T23:35:14.921Z,25.60
2022-09-05T23:37:43.733Z,25.60
2022-09-05T23:40:13.528Z,25.50
2022-09-05T23:42:41.087Z,25.50
2022-09-05T23:45:09.100Z,25.50
2022-09-05T23:47:36.710Z,25.50
2022-09-05T23:50:04.354Z,25.40
2022-09-05T23:54:58.500Z,25.40
